createdAt,value
2023-02-17T00:00:19.195Z,1.63
2023-02-17T00:02:45.908Z,1.65
2023-02-17T00:05:13.032Z,1.90
2023-02-17T00:07:40.416Z,1.60
2023-02-17T00:10:08.172Z,1.50
2023-02-17T00:12:35.926Z,1.30
2023-02-17T00:15:02.616Z,2.40
2023-02-17T00:17:29.351Z,1.63
2023-02-17T00:19:57.422Z,1.15
2023-02-17T00:22:24.353Z,1.60
2023-02-17T00:24:51.188Z,2.20
2023-02-17T00:27:19.460Z,2.13
2023-02-17T00:29:46.420Z,1.70
2023-02-17T00:32:13.323Z,1.50
2023-02-17T00:34:40.145Z,1.92
2023-02-17T00:37:07.132Z,2.03
2023-02-17T00:39:33.933Z,1.90
2023-02-17T00:42:00.748Z,1.77
2023-02-17T00:44:29.374Z,1.77
2023-02-17T00:46:56.109Z,1.65
2023-02-17T00:49:25.427Z,2.08
2023-02-17T00:51:53.048Z,1.85
2023-02-17T00:54:20.589Z,1.75
2023-02-17T00:56:47.425Z,1.85
2023-02-17T00:59:14.361Z,1.27
2023-02-17T01:01:41.311Z,2.00
2023-02-17T01:04:10.037Z,1.77
2023-02-17T01:06:38.343Z,1.60
2023-02-17T01:09:09.236Z,1.73
2023-02-17T01:11:36.710Z,2.33
2023-02-17T01:14:06.248Z,1.98
2023-02-17T01:16:41.279Z,2.17
2023-02-17T01:19:11.782Z,1.77
2023-02-17T01:21:39.067Z,1.88
2023-02-17T01:24:07.619Z,1.45
2023-02-17T01:26:36.882Z,2.05
2023-02-17T01:29:05.020Z,1.65
2023-02-17T01:31:31.958Z,1.38
2023-02-17T01:34:01.321Z,2.20
2023-02-17T01:36:28.532Z,2.08
2023-02-17T01:38:55.540Z,1.92
2023-02-17T01:41:26.868Z,1.90
2023-02-17T01:44:14.525Z,1.92
2023-02-17T01:46:44.160Z,1.92
2023-02-17T01:49:24.310Z,1.85
2023-02-17T01:52:06.463Z,1.60
2023-02-17T01:54:40.037Z,1.25
2023-02-17T01:57:09.577Z,1.42
2023-02-17T01:59:37.295Z,1.63
2023-02-17T02:02:05.913Z,1.90
2023-02-17T02:04:36.310Z,1.83
2023-02-17T02:07:06.004Z,1.83
2023-02-17T02:09:41.625Z,1.90
2023-02-17T02:12:17.631Z,2.10
2023-02-17T02:14:45.972Z,2.10
2023-02-17T02:17:49.615Z,1.40
2023-02-17T02:20:37.396Z,1.80
2023-02-17T02:23:07.243Z,1.25
2023-02-17T02:26:06.149Z,1.70
2023-02-17T02:29:19.920Z,1.63
2023-02-17T02:31:52.711Z,1.73
2023-02-17T02:34:47.920Z,2.10
2023-02-17T02:37:24.962Z,2.03
2023-02-17T02:39:54.191Z,1.67
2023-02-17T02:42:25.427Z,1.63
2023-02-17T02:44:52.390Z,1.50
2023-02-17T02:47:43.707Z,1.33
2023-02-17T02:50:15.092Z,1.58
2023-02-17T02:53:19.652Z,1.50
2023-02-17T02:58:52.659Z,1.40
2023-02-17T03:01:32.788Z,1.38
2023-02-17T03:04:12.737Z,1.55
2023-02-17T03:06:43.911Z,1.67
2023-02-17T03:09:19.523Z,1.17
2023-02-17T03:11:47.439Z,1.15
2023-02-17T03:14:16.959Z,1.02
2023-02-17T03:16:44.752Z,1.08
2023-02-17T03:19:13.595Z,0.98
2023-02-17T03:21:48.605Z,1.02
2023-02-17T03:24:16.759Z,1.15
2023-02-17T03:26:45.929Z,1.10
2023-02-17T03:29:12.846Z,1.15
2023-02-17T03:31:40.536Z,1.20
2023-02-17T03:34:07.488Z,0.95
2023-02-17T03:36:34.328Z,1.15
2023-02-17T03:39:01.062Z,1.23
2023-02-17T03:41:27.820Z,1.15
2023-02-17T03:43:55.124Z,0.77
2023-02-17T03:46:22.134Z,1.40
2023-02-17T03:48:48.901Z,1.38
2023-02-17T03:51:18.823Z,1.75
2023-02-17T03:53:46.332Z,1.27
2023-02-17T03:56:14.565Z,1.13
2023-02-17T03:58:42.062Z,1.05
2023-02-17T04:01:10.877Z,1.65
2023-02-17T04:03:38.866Z,1.30
2023-02-17T04:06:07.018Z,1.13
2023-02-17T04:08:34.231Z,1.40
2023-02-17T04:11:03.781Z,1.10
2023-02-17T04:13:31.477Z,1.20
2023-02-17T04:15:58.411Z,1.70
2023-02-17T04:18:25.494Z,1.42
2023-02-17T04:20:53.883Z,1.52
2023-02-17T04:23:20.883Z,1.83
2023-02-17T04:25:47.986Z,1.50
2023-02-17T04:28:16.046Z,1.73
2023-02-17T04:30:44.478Z,1.65
2023-02-17T04:33:12.547Z,1.77
2023-02-17T04:35:39.793Z,1.10
2023-02-17T04:38:10.269Z,1.60
2023-02-17T04:40:38.306Z,1.50
2023-02-17T04:43:05.797Z,1.95
2023-02-17T04:45:32.552Z,2.30
2023-02-17T04:47:59.627Z,1.67
2023-02-17T04:50:26.559Z,1.60
2023-02-17T04:52:53.250Z,1.27
2023-02-17T04:55:20.101Z,2.30
2023-02-17T04:57:46.947Z,1.95
2023-02-17T05:00:13.940Z,2.38
2023-02-17T05:02:40.756Z,1.67
2023-02-17T05:05:07.760Z,1.88
2023-02-17T05:07:34.635Z,1.85
2023-02-17T05:10:01.335Z,1.75
2023-02-17T05:12:28.272Z,2.58
2023-02-17T05:14:55.058Z,2.00
2023-02-17T05:17:21.801Z,2.15
2023-02-17T05:19:48.563Z,1.50
2023-02-17T05:22:15.380Z,1.92
2023-02-17T05:24:42.100Z,1.73
2023-02-17T05:27:08.881Z,2.70
2023-02-17T05:29:36.809Z,2.05
2023-02-17T05:32:03.989Z,2.08
2023-02-17T05:34:30.793Z,1.77
2023-02-17T05:36:57.493Z,2.50
2023-02-17T05:39:24.235Z,2.58
2023-02-17T05:41:52.304Z,2.10
2023-02-17T05:44:19.103Z,2.97
2023-02-17T05:46:45.877Z,2.05
2023-02-17T05:49:12.793Z,1.95
2023-02-17T05:51:39.707Z,2.25
2023-02-17T05:54:06.612Z,2.10
2023-02-17T05:56:33.602Z,1.98
2023-02-17T05:59:00.969Z,2.55
2023-02-17T06:01:27.856Z,2.17
2023-02-17T06:03:54.634Z,2.20
2023-02-17T06:06:21.443Z,2.45
2023-02-17T06:08:48.153Z,2.20
2023-02-17T06:11:14.981Z,2.72
2023-02-17T06:13:41.704Z,3.03
2023-02-17T06:16:08.755Z,3.45
2023-02-17T06:18:35.772Z,2.80
2023-02-17T06:21:02.616Z,2.42
2023-02-17T06:23:29.547Z,3.03
2023-02-17T06:25:56.499Z,2.50
2023-02-17T06:28:23.291Z,2.10
2023-02-17T06:30:50.088Z,2.75
2023-02-17T06:33:16.832Z,3.58
2023-02-17T06:35:48.319Z,2.80
2023-02-17T06:38:15.088Z,2.75
2023-02-17T06:40:41.816Z,2.45
2023-02-17T06:43:08.476Z,3.35
2023-02-17T06:45:35.253Z,2.72
2023-02-17T06:48:02.089Z,2.70
2023-02-17T06:50:29.117Z,2.33
2023-02-17T06:52:55.856Z,2.75
2023-02-17T06:55:22.650Z,2.53
2023-02-17T06:57:49.378Z,1.35
2023-02-17T07:00:16.492Z,1.92
2023-02-17T07:02:43.350Z,2.08
2023-02-17T07:05:10.133Z,1.58
2023-02-17T07:07:37.128Z,1.98
2023-02-17T07:10:04.675Z,2.88
2023-02-17T07:12:31.500Z,2.53
2023-02-17T07:14:58.286Z,2.00
2023-02-17T07:17:25.057Z,2.42
2023-02-17T07:19:51.755Z,2.20
2023-02-17T07:22:18.540Z,2.63
2023-02-17T07:24:45.316Z,1.38
2023-02-17T07:27:14.725Z,2.05
2023-02-17T07:29:41.445Z,2.83
2023-02-17T07:32:08.263Z,1.73
2023-02-17T07:34:34.937Z,1.80
2023-02-17T07:37:01.744Z,1.63
2023-02-17T07:39:28.410Z,1.80
2023-02-17T07:42:00.479Z,1.83
2023-02-17T07:44:27.980Z,2.10
2023-02-17T07:46:55.235Z,1.98
2023-02-17T07:49:22.052Z,1.45
2023-02-17T07:51:48.969Z,1.27
2023-02-17T07:54:15.777Z,1.60
2023-02-17T07:56:42.545Z,1.52
2023-02-17T07:59:10.663Z,1.63
2023-02-17T08:01:38.332Z,1.70
2023-02-17T08:04:05.459Z,1.60
2023-02-17T08:06:32.644Z,1.80
2023-02-17T08:09:17.860Z,1.35
2023-02-17T08:12:03.470Z,1.33
2023-02-17T08:14:31.822Z,1.40
2023-02-17T08:16:59.035Z,1.65
2023-02-17T08:19:31.704Z,1.48
2023-02-17T08:22:06.309Z,1.20
2023-02-17T08:24:33.038Z,1.10
2023-02-17T08:26:59.849Z,1.25
2023-02-17T08:29:26.586Z,1.30
2023-02-17T08:31:53.631Z,1.50
2023-02-17T08:34:21.758Z,1.08
2023-02-17T08:36:48.523Z,0.90
2023-02-17T08:39:16.682Z,1.23
2023-02-17T08:41:44.122Z,1.10
2023-02-17T08:44:14.344Z,1.25
2023-02-17T08:46:41.899Z,0.82
2023-02-17T08:49:08.709Z,0.80
2023-02-17T08:51:35.997Z,1.20
2023-02-17T08:54:04.559Z,0.88
2023-02-17T08:56:31.433Z,0.88
2023-02-17T08:58:58.234Z,0.77
2023-02-17T09:01:25.580Z,0.70
2023-02-17T09:03:53.980Z,0.80
2023-02-17T09:06:21.444Z,0.82
2023-02-17T09:08:48.659Z,0.85
2023-02-17T09:11:19.015Z,0.77
2023-02-17T09:13:45.865Z,1.20
2023-02-17T09:16:12.843Z,0.70
2023-02-17T09:18:39.914Z,0.47
2023-02-17T09:21:09.198Z,1.00
2023-02-17T09:23:36.199Z,0.70
2023-02-17T09:26:06.171Z,0.60
2023-02-17T09:28:34.282Z,0.45
2023-02-17T09:31:29.589Z,0.60
2023-02-17T09:33:57.539Z,0.88
2023-02-17T09:36:27.885Z,0.68
2023-02-17T09:38:55.595Z,0.80
2023-02-17T09:41:39.318Z,0.63
2023-02-17T09:44:31.146Z,0.80
2023-02-17T09:47:06.587Z,0.60
2023-02-17T09:49:39.612Z,0.70
2023-02-17T09:52:34.576Z,0.77
2023-02-17T09:55:18.091Z,0.60
2023-02-17T09:58:03.179Z,0.60
2023-02-17T10:00:35.346Z,0.50
2023-02-17T10:03:17.788Z,0.88
2023-02-17T10:06:14.221Z,0.77
2023-02-17T10:08:55.132Z,0.90
2023-02-17T10:11:35.994Z,0.63
2023-02-17T10:14:09.699Z,0.85
2023-02-17T10:16:44.255Z,0.80
2023-02-17T10:19:18.575Z,0.85
2023-02-17T10:22:05.591Z,0.93
2023-02-17T10:24:32.312Z,1.00
2023-02-17T10:27:50.624Z,0.93
2023-02-17T10:30:29.193Z,0.60
2023-02-17T10:33:38.820Z,0.68
2023-02-17T10:36:22.980Z,0.68
2023-02-17T10:38:52.462Z,0.90
2023-02-17T10:41:27.063Z,1.10
2023-02-17T10:43:54.961Z,0.57
2023-02-17T10:46:29.195Z,1.00
2023-02-17T10:48:58.688Z,1.80
2023-02-17T10:51:28.795Z,0.80
2023-02-17T10:54:03.355Z,1.10
2023-02-17T10:56:39.858Z,1.30
2023-02-17T10:59:14.404Z,0.98
2023-02-17T11:01:41.791Z,1.15
2023-02-17T11:04:13.861Z,0.93
2023-02-17T11:06:52.658Z,1.08
2023-02-17T11:09:34.512Z,1.25
2023-02-17T11:12:04.453Z,0.98
2023-02-17T11:14:33.136Z,1.00
2023-02-17T11:17:02.916Z,1.13
2023-02-17T11:19:35.114Z,1.13
2023-02-17T11:22:05.063Z,1.15
2023-02-17T11:24:34.125Z,1.23
2023-02-17T11:27:04.025Z,1.35
2023-02-17T11:29:32.312Z,1.13
2023-02-17T11:32:12.332Z,1.33
2023-02-17T11:34:42.375Z,1.13
2023-02-17T11:37:12.104Z,1.00
2023-02-17T11:39:41.355Z,0.75
2023-02-17T11:42:25.487Z,0.70
2023-02-17T11:44:54.813Z,0.85
2023-02-17T11:47:47.639Z,1.08
2023-02-17T11:50:41.375Z,1.23
2023-02-17T11:53:27.651Z,1.00
2023-02-17T11:56:11.656Z,1.35
2023-02-17T11:58:49.608Z,0.95
2023-02-17T12:01:55.695Z,1.08
2023-02-17T12:04:34.078Z,1.00
2023-02-17T12:07:09.901Z,0.85
2023-02-17T12:09:42.674Z,1.25
2023-02-17T12:12:27.715Z,0.80
2023-02-17T12:15:24.733Z,0.85
2023-02-17T12:18:06.182Z,1.23
2023-02-17T12:20:42.066Z,1.27
2023-02-17T12:23:32.808Z,1.20
2023-02-17T12:26:11.580Z,1.27
2023-02-17T12:29:06.436Z,0.82
2023-02-17T12:31:35.924Z,1.00
2023-02-17T12:34:24.628Z,0.70
2023-02-17T12:36:53.011Z,1.10
2023-02-17T12:39:28.686Z,1.10
2023-02-17T12:41:58.115Z,1.40
2023-02-17T12:44:45.796Z,1.17
2023-02-17T12:47:17.250Z,1.50
2023-02-17T12:49:49.707Z,1.52
2023-02-17T12:52:41.582Z,0.70
2023-02-17T12:55:21.290Z,1.05
2023-02-17T12:58:01.005Z,0.63
2023-02-17T13:00:36.375Z,1.48
2023-02-17T13:03:04.561Z,0.73
2023-02-17T13:05:42.351Z,0.80
2023-02-17T13:08:26.964Z,0.90
2023-02-17T13:11:06.292Z,0.90
2023-02-17T13:13:35.231Z,0.43
2023-02-17T13:16:13.536Z,0.95
2023-02-17T13:18:43.143Z,0.73
2023-02-17T13:21:16.187Z,0.73
2023-02-17T13:23:45.738Z,1.08
2023-02-17T13:26:20.606Z,1.10
2023-02-17T13:28:49.233Z,0.50
2023-02-17T13:31:17.922Z,0.52
2023-02-17T13:33:51.821Z,0.73
2023-02-17T13:36:38.351Z,0.60
2023-02-17T13:39:26.679Z,0.60
2023-02-17T13:41:56.084Z,0.75
2023-02-17T13:44:40.893Z,0.98
2023-02-17T13:47:24.952Z,1.25
2023-02-17T13:49:56.926Z,0.77
2023-02-17T13:52:27.145Z,0.75
2023-02-17T13:54:56.672Z,0.52
2023-02-17T13:57:43.642Z,0.93
2023-02-17T14:00:27.716Z,0.90
2023-02-17T14:03:25.057Z,1.10
2023-02-17T14:05:55.026Z,0.52
2023-02-17T14:08:27.734Z,1.02
2023-02-17T14:10:55.205Z,1.07
2023-02-17T14:13:23.678Z,1.25
2023-02-17T14:15:54.601Z,2.30
2023-02-17T14:18:29.595Z,1.00
2023-02-17T14:21:23.694Z,1.30
2023-02-17T14:23:52.796Z,1.38
2023-02-17T14:26:41.362Z,1.13
2023-02-17T14:29:12.603Z,0.88
2023-02-17T14:31:42.108Z,1.33
2023-02-17T14:34:34.151Z,1.48
2023-02-17T14:37:22.829Z,1.63
2023-02-17T14:39:49.789Z,1.52
2023-02-17T14:42:16.643Z,1.83
2023-02-17T14:44:44.061Z,1.52
2023-02-17T14:47:10.835Z,1.73
2023-02-17T14:49:37.580Z,1.75
2023-02-17T14:52:19.248Z,1.55
2023-02-17T14:54:46.197Z,1.70
2023-02-17T14:57:14.740Z,1.90
2023-02-17T14:59:44.130Z,1.48
2023-02-17T15:02:19.381Z,2.03
2023-02-17T15:04:46.291Z,1.17
2023-02-17T15:07:16.081Z,0.98
2023-02-17T15:09:45.023Z,1.70
2023-02-17T15:12:18.139Z,0.75
2023-02-17T15:14:46.818Z,1.13
2023-02-17T15:21:36.632Z,2.13
2023-02-17T15:28:21.402Z,1.83
2023-02-17T15:35:20.129Z,1.50
2023-02-17T15:41:41.220Z,1.38
2023-02-17T15:48:33.957Z,1.65
2023-02-17T15:55:28.200Z,2.72
2023-02-17T16:02:21.288Z,1.65
2023-02-17T16:09:00.307Z,1.52
2023-02-17T16:15:46.856Z,1.52
2023-02-17T16:22:26.236Z,1.63
2023-02-17T16:29:20.695Z,2.35
2023-02-17T16:36:20.974Z,1.50
2023-02-17T16:43:16.930Z,1.55
2023-02-17T16:54:13.351Z,1.85
2023-02-17T17:01:05.382Z,1.45
2023-02-17T17:07:44.484Z,2.13
2023-02-17T17:14:42.200Z,1.77
2023-02-17T17:21:34.220Z,2.28
2023-02-17T17:28:19.987Z,1.92
2023-02-17T17:35:12.985Z,1.80
2023-02-17T17:41:58.662Z,1.55
2023-02-17T17:48:44.656Z,1.92
2023-02-17T17:52:02.134Z,3.30
2023-02-17T17:54:28.866Z,2.35
2023-02-17T17:56:56.613Z,2.25
2023-02-17T17:59:23.627Z,2.22
2023-02-17T18:01:50.472Z,1.98
2023-02-17T18:04:17.206Z,2.35
2023-02-17T18:06:47.267Z,2.45
2023-02-17T18:09:30.693Z,1.98
2023-02-17T18:12:01.398Z,2.20
2023-02-17T18:14:28.971Z,2.47
2023-02-17T18:16:55.858Z,2.00
2023-02-17T18:19:23.495Z,2.53
2023-02-17T18:21:50.254Z,3.05
2023-02-17T18:24:17.167Z,2.78
2023-02-17T18:26:44.542Z,2.17
2023-02-17T18:29:11.546Z,2.38
2023-02-17T18:31:38.451Z,3.63
2023-02-17T18:34:05.333Z,3.05
2023-02-17T18:36:32.154Z,2.28
2023-02-17T18:38:58.969Z,2.88
2023-02-17T18:41:29.296Z,2.70
2023-02-17T18:43:58.281Z,2.80
2023-02-17T18:46:26.916Z,2.97
2023-02-17T18:48:55.328Z,3.40
2023-02-17T18:51:23.423Z,2.85
2023-02-17T18:53:51.092Z,2.88
2023-02-17T18:56:22.438Z,3.15
2023-02-17T18:58:51.185Z,3.17
2023-02-17T19:01:19.687Z,3.00
2023-02-17T19:03:47.221Z,2.90
2023-02-17T19:06:17.210Z,3.65
2023-02-17T19:08:46.235Z,2.72
2023-02-17T19:11:14.068Z,2.80
2023-02-17T19:13:44.505Z,2.95
2023-02-17T19:16:15.184Z,2.47
2023-02-17T19:18:42.984Z,2.95
2023-02-17T19:21:10.210Z,2.38
2023-02-17T19:23:38.241Z,3.38
2023-02-17T19:26:06.978Z,3.78
2023-02-17T19:28:35.708Z,2.83
2023-02-17T19:31:04.994Z,3.95
2023-02-17T19:33:32.813Z,3.55
2023-02-17T19:35:59.800Z,3.63
2023-02-17T19:38:26.641Z,3.05
2023-02-17T19:40:53.397Z,3.20
2023-02-17T19:43:20.223Z,3.33
2023-02-17T19:45:47.029Z,2.47
2023-02-17T19:48:13.776Z,4.28
2023-02-17T19:50:40.634Z,3.65
2023-02-17T19:53:07.462Z,3.85
2023-02-17T19:55:34.783Z,3.20
2023-02-17T19:58:02.461Z,4.53
2023-02-17T20:00:29.620Z,4.18
2023-02-17T20:02:56.392Z,3.53
2023-02-17T20:05:23.309Z,3.08
2023-02-17T20:07:50.315Z,4.32
2023-02-17T20:10:19.432Z,3.85
2023-02-17T20:12:46.225Z,4.57
2023-02-17T20:15:13.068Z,3.83
2023-02-17T20:17:41.011Z,3.92
2023-02-17T20:20:11.264Z,3.70
2023-02-17T20:22:39.011Z,4.35
2023-02-17T20:25:06.860Z,3.50
2023-02-17T20:27:34.247Z,4.00
2023-02-17T20:30:02.407Z,4.25
2023-02-17T20:32:29.959Z,4.55
2023-02-17T20:34:56.742Z,4.32
2023-02-17T20:37:23.585Z,4.03
2023-02-17T20:39:50.308Z,4.70
2023-02-17T20:42:17.029Z,4.38
2023-02-17T20:44:44.538Z,4.75
2023-02-17T20:47:11.895Z,4.88
2023-02-17T20:49:39.498Z,4.90
2023-02-17T20:52:06.415Z,4.43
2023-02-17T20:54:33.452Z,4.50
2023-02-17T20:57:01.049Z,5.00
2023-02-17T20:59:28.273Z,4.50
2023-02-17T21:01:55.922Z,3.72
2023-02-17T21:04:22.776Z,4.20
2023-02-17T21:06:50.352Z,5.25
2023-02-17T21:09:18.771Z,4.07
2023-02-17T21:11:46.851Z,3.90
2023-02-17T21:14:14.399Z,3.88
2023-02-17T21:16:41.283Z,4.70
2023-02-17T21:19:08.185Z,3.70
2023-02-17T21:21:35.642Z,3.80
2023-02-17T21:24:02.936Z,4.43
2023-02-17T21:26:29.900Z,3.83
2023-02-17T21:28:56.812Z,4.28
2023-02-17T21:31:27.729Z,4.72
2023-02-17T21:33:55.025Z,4.50
2023-02-17T21:36:22.196Z,4.30
2023-02-17T21:38:48.992Z,4.55
2023-02-17T21:41:21.393Z,4.30
2023-02-17T21:44:07.525Z,4.43
2023-02-17T21:46:34.823Z,4.55
2023-02-17T21:49:01.866Z,4.50
2023-02-17T21:51:29.363Z,4.70
2023-02-17T21:53:56.348Z,4.78
2023-02-17T21:56:23.683Z,4.65
2023-02-17T21:58:52.678Z,4.80
2023-02-17T22:01:20.973Z,3.85
2023-02-17T22:03:48.998Z,4.65
2023-02-17T22:06:20.693Z,3.92
2023-02-17T22:08:47.826Z,4.95
2023-02-17T22:11:27.173Z,4.25
2023-02-17T22:13:55.360Z,3.95
2023-02-17T22:16:22.502Z,4.78
2023-02-17T22:18:49.431Z,5.32
2023-02-17T22:21:17.245Z,4.20
2023-02-17T22:23:45.180Z,5.00
2023-02-17T22:26:20.960Z,5.35
2023-02-17T22:28:48.677Z,4.95
2023-02-17T22:31:18.644Z,5.07
2023-02-17T22:33:46.177Z,4.57
2023-02-17T22:36:19.177Z,5.35
2023-02-17T22:38:46.320Z,5.18
2023-02-17T22:41:15.842Z,5.28
2023-02-17T22:43:43.898Z,4.65
2023-02-17T22:46:12.019Z,5.10
2023-02-17T22:48:39.049Z,5.60
2023-02-17T22:51:12.645Z,5.38
2023-02-17T22:56:07.170Z,4.80
2023-02-17T22:58:34.534Z,4.90
2023-02-17T23:01:07.519Z,5.97
2023-02-17T23:03:35.102Z,5.03
2023-02-17T23:06:04.682Z,5.50
2023-02-17T23:08:32.173Z,6.22
2023-02-17T23:10:59.233Z,5.35
2023-02-17T23:13:26.232Z,5.70
2023-02-17T23:15:53.065Z,5.65
2023-02-17T23:18:20.132Z,5.63
2023-02-17T23:20:56.909Z,4.40
2023-02-17T23:23:24.024Z,5.53
2023-02-17T23:25:53.714Z,5.75
2023-02-17T23:28:22.956Z,5.38
2023-02-17T23:30:50.949Z,5.75
2023-02-17T23:33:20.229Z,5.82
2023-02-17T23:35:48.142Z,6.10
2023-02-17T23:38:17.269Z,6.55
2023-02-17T23:40:49.687Z,6.60
2023-02-17T23:43:17.443Z,6.55
2023-02-17T23:45:44.368Z,7.32
2023-02-17T23:48:11.669Z,6.45
2023-02-17T23:50:42.460Z,7.78
2023-02-17T23:53:09.680Z,7.35
2023-02-17T23:55:36.472Z,6.20
2023-02-17T23:58:03.311Z,7.32
